sensor_id;sensor_type;location;lat;lon;timestamp;P1;durP1;ratioP1;P2;durP2;ratioP2
28627;SDS011;15815;46.760;19.604;2022-11-20T00:00:55;46.28;;;25.80;;
28627;SDS011;15815;46.760;19.604;2022-11-20T00:03:22;43.03;;;24.75;;
28627;SDS011;15815;46.760;19.604;2022-11-20T00:05:48;44.78;;;25.30;;
28627;SDS011;15815;46.760;19.604;2022-11-20T00:08:13;45.90;;;25.05;;
28627;SDS011;15815;46.760;19.604;2022-11-20T00:10:39;42.78;;;23.45;;
28627;SDS011;15815;46.760;19.604;2022-11-20T00:13:05;40.60;;;23.45;;
28627;SDS011;15815;46.760;19.604;2022-11-20T00:15:32;43.63;;;23.85;;
28627;SDS011;15815;46.760;19.604;2022-11-20T00:17:58;40.80;;;23.15;;
28627;SDS011;15815;46.760;19.604;2022-11-20T00:20:23;43.97;;;24.52;;
28627;SDS011;15815;46.760;19.604;2022-11-20T00:22:49;45.83;;;25.48;;
28627;SDS011;15815;46.760;19.604;2022-11-20T00:25:14;46.20;;;25.55;;
28627;SDS011;15815;46.760;19.604;2022-11-20T00:27:40;48.97;;;25.23;;
28627;SDS011;15815;46.760;19.604;2022-11-20T00:30:05;44.95;;;24.40;;
28627;SDS011;15815;46.760;19.604;2022-11-20T00:32:31;44.78;;;25.45;;
28627;SDS011;15815;46.760;19.604;2022-11-20T00:34:57;43.05;;;24.20;;
28627;SDS011;15815;46.760;19.604;2022-11-20T00:37:22;49.10;;;25.65;;
28627;SDS011;15815;46.760;19.604;2022-11-20T00:39:47;44.60;;;25.52;;
28627;SDS011;15815;46.760;19.604;2022-11-20T00:42:13;44.53;;;23.75;;
28627;SDS011;15815;46.760;19.604;2022-11-20T00:44:38;44.42;;;23.92;;
28627;SDS011;15815;46.760;19.604;2022-11-20T00:47:06;41.25;;;23.83;;
28627;SDS011;15815;46.760;19.604;2022-11-20T00:49:32;44.47;;;24.83;;
28627;SDS011;15815;46.760;19.604;2022-11-20T00:51:57;41.97;;;23.58;;
28627;SDS011;15815;46.760;19.604;2022-11-20T00:54:22;44.92;;;25.10;;
28627;SDS011;15815;46.760;19.604;2022-11-20T00:56:47;43.92;;;24.05;;
28627;SDS011;15815;46.760;19.604;2022-11-20T00:59:13;45.17;;;25.00;;
28627;SDS011;15815;46.760;19.604;2022-11-20T01:01:38;42.35;;;25.40;;
28627;SDS011;15815;46.760;19.604;2022-11-20T01:04:04;47.75;;;25.73;;
28627;SDS011;15815;46.760;19.604;2022-11-20T01:06:31;48.17;;;25.48;;
28627;SDS011;15815;46.760;19.604;2022-11-20T01:09:02;46.38;;;26.20;;
28627;SDS011;15815;46.760;19.604;2022-11-20T01:11:32;45.92;;;25.80;;
28627;SDS011;15815;46.760;19.604;2022-11-20T01:14:03;48.53;;;27.13;;
28627;SDS011;15815;46.760;19.604;2022-11-20T01:16:31;51.95;;;26.50;;
28627;SDS011;15815;46.760;19.604;2022-11-20T01:19:02;45.17;;;26.10;;
28627;SDS011;15815;46.760;19.604;2022-11-20T01:21:30;46.85;;;25.55;;
28627;SDS011;15815;46.760;19.604;2022-11-20T01:24:00;48.95;;;26.73;;
28627;SDS011;15815;46.760;19.604;2022-11-20T01:26:27;48.53;;;26.02;;
28627;SDS011;15815;46.760;19.604;2022-11-20T01:28:54;49.65;;;25.10;;
28627;SDS011;15815;46.760;19.604;2022-11-20T01:33:49;48.72;;;26.33;;
28627;SDS011;15815;46.760;19.604;2022-11-20T01:36:16;47.63;;;26.95;;
28627;SDS011;15815;46.760;19.604;2022-11-20T01:38:46;48.58;;;26.17;;
28627;SDS011;15815;46.760;19.604;2022-11-20T01:41:11;47.15;;;27.48;;
28627;SDS011;15815;46.760;19.604;2022-11-20T01:43:56;47.75;;;25.70;;
28627;SDS011;15815;46.760;19.604;2022-11-20T01:46:22;44.92;;;25.48;;
28627;SDS011;15815;46.760;19.604;2022-11-20T01:51:28;47.17;;;26.70;;
28627;SDS011;15815;46.760;19.604;2022-11-20T01:53:54;49.75;;;26.92;;
28627;SDS011;15815;46.760;19.604;2022-11-20T01:56:23;47.63;;;26.20;;
28627;SDS011;15815;46.760;19.604;2022-11-20T01:58:51;47.75;;;25.95;;
28627;SDS011;15815;46.760;19.604;2022-11-20T02:01:20;47.28;;;26.10;;
28627;SDS011;15815;46.760;19.604;2022-11-20T02:03:46;49.10;;;27.50;;
28627;SDS011;15815;46.760;19.604;2022-11-20T02:08:50;48.13;;;26.73;;
28627;SDS011;15815;46.760;19.604;2022-11-20T02:11:19;46.67;;;26.63;;
28627;SDS011;15815;46.760;19.604;2022-11-20T02:13:45;47.03;;;25.67;;
28627;SDS011;15815;46.760;19.604;2022-11-20T02:18:43;46.50;;;26.95;;
28627;SDS011;15815;46.760;19.604;2022-11-20T02:23:39;45.22;;;25.20;;
28627;SDS011;15815;46.760;19.604;2022-11-20T02:26:10;47.92;;;26.35;;
28627;SDS011;15815;46.760;19.604;2022-11-20T02:28:39;45.80;;;25.65;;
28627;SDS011;15815;46.760;19.604;2022-11-20T02:31:04;48.08;;;25.30;;
28627;SDS011;15815;46.760;19.604;2022-11-20T02:33:30;48.22;;;25.10;;
28627;SDS011;15815;46.760;19.604;2022-11-20T02:35:55;43.78;;;25.55;;
28627;SDS011;15815;46.760;19.604;2022-11-20T02:38:20;46.30;;;26.05;;
28627;SDS011;15815;46.760;19.604;2022-11-20T02:40:46;46.30;;;26.35;;
28627;SDS011;15815;46.760;19.604;2022-11-20T02:43:11;45.55;;;26.33;;
28627;SDS011;15815;46.760;19.604;2022-11-20T02:45:37;43.15;;;25.02;;
28627;SDS011;15815;46.760;19.604;2022-11-20T02:48:03;44.25;;;25.60;;
28627;SDS011;15815;46.760;19.604;2022-11-20T02:50:28;49.13;;;25.58;;
28627;SDS011;15815;46.760;19.604;2022-11-20T02:52:53;46.28;;;25.67;;
28627;SDS011;15815;46.760;19.604;2022-11-20T02:55:19;44.83;;;25.92;;
28627;SDS011;15815;46.760;19.604;2022-11-20T02:57:44;46.90;;;26.13;;
28627;SDS011;15815;46.760;19.604;2022-11-20T03:00:10;47.47;;;25.45;;
28627;SDS011;15815;46.760;19.604;2022-11-20T03:02:35;49.13;;;26.58;;
28627;SDS011;15815;46.760;19.604;2022-11-20T03:05:01;48.47;;;26.15;;
28627;SDS011;15815;46.760;19.604;2022-11-20T03:07:30;46.85;;;26.80;;
28627;SDS011;15815;46.760;19.604;2022-11-20T03:09:55;44.88;;;25.60;;
28627;SDS011;15815;46.760;19.604;2022-11-20T03:12:20;46.20;;;25.83;;
28627;SDS011;15815;46.760;19.604;2022-11-20T03:14:46;47.40;;;26.92;;
28627;SDS011;15815;46.760;19.604;2022-11-20T03:17:11;44.53;;;24.23;;
28627;SDS011;15815;46.760;19.604;2022-11-20T03:19:36;46.67;;;25.63;;
28627;SDS011;15815;46.760;19.604;2022-11-20T03:22:02;43.20;;;24.85;;
28627;SDS011;15815;46.760;19.604;2022-11-20T03:24:27;41.70;;;25.17;;
28627;SDS011;15815;46.760;19.604;2022-11-20T03:26:52;46.53;;;26.48;;
28627;SDS011;15815;46.760;19.604;2022-11-20T03:29:18;46.85;;;25.17;;
28627;SDS011;15815;46.760;19.604;2022-11-20T03:31:43;46.53;;;25.38;;
28627;SDS011;15815;46.760;19.604;2022-11-20T03:34:09;46.33;;;25.73;;
28627;SDS011;15815;46.760;19.604;2022-11-20T03:36:39;42.95;;;26.10;;
28627;SDS011;15815;46.760;19.604;2022-11-20T03:39:06;44.80;;;24.38;;
28627;SDS011;15815;46.760;19.604;2022-11-20T03:41:35;47.15;;;25.73;;
28627;SDS011;15815;46.760;19.604;2022-11-20T03:44:03;42.95;;;24.35;;
28627;SDS011;15815;46.760;19.604;2022-11-20T03:46:30;42.25;;;24.92;;
28627;SDS011;15815;46.760;19.604;2022-11-20T03:48:56;48.85;;;25.45;;
28627;SDS011;15815;46.760;19.604;2022-11-20T03:51:25;45.10;;;24.00;;
28627;SDS011;15815;46.760;19.604;2022-11-20T03:53:53;44.33;;;24.48;;
28627;SDS011;15815;46.760;19.604;2022-11-20T03:56:20;42.95;;;23.45;;
28627;SDS011;15815;46.760;19.604;2022-11-20T03:58:48;45.25;;;24.27;;
28627;SDS011;15815;46.760;19.604;2022-11-20T04:01:14;38.17;;;22.30;;
28627;SDS011;15815;46.760;19.604;2022-11-20T04:03:42;40.00;;;23.65;;
28627;SDS011;15815;46.760;19.604;2022-11-20T04:06:27;39.00;;;22.38;;
28627;SDS011;15815;46.760;19.604;2022-11-20T04:08:59;40.65;;;23.50;;
28627;SDS011;15815;46.760;19.604;2022-11-20T04:11:25;41.75;;;24.55;;
28627;SDS011;15815;46.760;19.604;2022-11-20T04:13:56;42.83;;;24.23;;
28627;SDS011;15815;46.760;19.604;2022-11-20T04:16:28;40.95;;;23.85;;
28627;SDS011;15815;46.760;19.604;2022-11-20T04:18:57;43.08;;;24.25;;
28627;SDS011;15815;46.760;19.604;2022-11-20T04:21:24;42.25;;;24.38;;
28627;SDS011;15815;46.760;19.604;2022-11-20T04:23:52;40.33;;;22.58;;
28627;SDS011;15815;46.760;19.604;2022-11-20T04:26:18;39.70;;;23.35;;
28627;SDS011;15815;46.760;19.604;2022-11-20T04:28:46;43.88;;;23.98;;
28627;SDS011;15815;46.760;19.604;2022-11-20T04:31:13;41.75;;;23.17;;
28627;SDS011;15815;46.760;19.604;2022-11-20T04:33:40;38.88;;;22.05;;
28627;SDS011;15815;46.760;19.604;2022-11-20T04:38:35;40.65;;;21.65;;
28627;SDS011;15815;46.760;19.604;2022-11-20T04:41:01;41.95;;;23.73;;
28627;SDS011;15815;46.760;19.604;2022-11-20T04:43:28;39.22;;;21.13;;
28627;SDS011;15815;46.760;19.604;2022-11-20T04:45:54;41.33;;;22.98;;
28627;SDS011;15815;46.760;19.604;2022-11-20T04:48:20;41.15;;;22.50;;
28627;SDS011;15815;46.760;19.604;2022-11-20T04:50:49;37.33;;;20.83;;
28627;SDS011;15815;46.760;19.604;2022-11-20T04:53:15;42.00;;;23.63;;
28627;SDS011;15815;46.760;19.604;2022-11-20T04:55:40;45.33;;;25.05;;
28627;SDS011;15815;46.760;19.604;2022-11-20T04:58:06;41.15;;;24.25;;
28627;SDS011;15815;46.760;19.604;2022-11-20T05:00:31;43.67;;;23.88;;
28627;SDS011;15815;46.760;19.604;2022-11-20T05:02:57;45.83;;;25.08;;
28627;SDS011;15815;46.760;19.604;2022-11-20T05:05:22;38.88;;;22.58;;
28627;SDS011;15815;46.760;19.604;2022-11-20T05:07:47;39.83;;;23.15;;
28627;SDS011;15815;46.760;19.604;2022-11-20T05:10:13;41.20;;;24.80;;
28627;SDS011;15815;46.760;19.604;2022-11-20T05:12:38;40.97;;;24.17;;
28627;SDS011;15815;46.760;19.604;2022-11-20T05:15:03;45.65;;;24.25;;
28627;SDS011;15815;46.760;19.604;2022-11-20T05:17:29;41.08;;;24.38;;
28627;SDS011;15815;46.760;19.604;2022-11-20T05:19:54;55.55;;;23.88;;
28627;SDS011;15815;46.760;19.604;2022-11-20T05:22:20;38.67;;;22.83;;
28627;SDS011;15815;46.760;19.604;2022-11-20T05:24:46;43.80;;;25.10;;
28627;SDS011;15815;46.760;19.604;2022-11-20T05:27:11;43.38;;;24.63;;
28627;SDS011;15815;46.760;19.604;2022-11-20T05:29:39;38.60;;;20.67;;
28627;SDS011;15815;46.760;19.604;2022-11-20T05:32:06;34.33;;;20.55;;
28627;SDS011;15815;46.760;19.604;2022-11-20T05:34:34;44.15;;;21.70;;
28627;SDS011;15815;46.760;19.604;2022-11-20T05:36:59;39.58;;;22.05;;
28627;SDS011;15815;46.760;19.604;2022-11-20T05:39:25;38.47;;;21.95;;
28627;SDS011;15815;46.760;19.604;2022-11-20T05:41:50;37.95;;;21.45;;
28627;SDS011;15815;46.760;19.604;2022-11-20T05:44:35;37.05;;;20.90;;
28627;SDS011;15815;46.760;19.604;2022-11-20T05:47:01;35.58;;;20.83;;
28627;SDS011;15815;46.760;19.604;2022-11-20T05:49:26;38.65;;;20.90;;
28627;SDS011;15815;46.760;19.604;2022-11-20T05:51:51;36.28;;;21.20;;
28627;SDS011;15815;46.760;19.604;2022-11-20T05:54:17;34.60;;;20.58;;
28627;SDS011;15815;46.760;19.604;2022-11-20T05:56:42;32.88;;;20.55;;
28627;SDS011;15815;46.760;19.604;2022-11-20T05:59:07;39.75;;;22.30;;
28627;SDS011;15815;46.760;19.604;2022-11-20T06:01:33;38.78;;;21.73;;
28627;SDS011;15815;46.760;19.604;2022-11-20T06:04:00;37.22;;;21.58;;
28627;SDS011;15815;46.760;19.604;2022-11-20T06:06:26;36.60;;;21.88;;
28627;SDS011;15815;46.760;19.604;2022-11-20T06:08:52;38.50;;;20.63;;
28627;SDS011;15815;46.760;19.604;2022-11-20T06:11:17;38.75;;;20.13;;
28627;SDS011;15815;46.760;19.604;2022-11-20T06:13:43;42.13;;;25.15;;
28627;SDS011;15815;46.760;19.604;2022-11-20T06:16:10;43.45;;;25.10;;
28627;SDS011;15815;46.760;19.604;2022-11-20T06:18:40;44.67;;;24.90;;
28627;SDS011;15815;46.760;19.604;2022-11-20T06:21:08;41.22;;;23.70;;
28627;SDS011;15815;46.760;19.604;2022-11-20T06:23:36;37.35;;;20.65;;
28627;SDS011;15815;46.760;19.604;2022-11-20T06:26:08;32.85;;;19.60;;
28627;SDS011;15815;46.760;19.604;2022-11-20T06:28:45;37.53;;;20.38;;
28627;SDS011;15815;46.760;19.604;2022-11-20T06:31:11;36.42;;;22.05;;
28627;SDS011;15815;46.760;19.604;2022-11-20T06:33:38;33.05;;;18.60;;
28627;SDS011;15815;46.760;19.604;2022-11-20T06:36:04;31.70;;;20.05;;
28627;SDS011;15815;46.760;19.604;2022-11-20T06:38:30;33.03;;;21.08;;
28627;SDS011;15815;46.760;19.604;2022-11-20T06:40:56;36.80;;;20.88;;
28627;SDS011;15815;46.760;19.604;2022-11-20T06:43:22;33.33;;;18.77;;
28627;SDS011;15815;46.760;19.604;2022-11-20T06:45:52;39.72;;;21.10;;
28627;SDS011;15815;46.760;19.604;2022-11-20T06:48:21;35.33;;;19.92;;
28627;SDS011;15815;46.760;19.604;2022-11-20T06:50:47;39.22;;;21.70;;
28627;SDS011;15815;46.760;19.604;2022-11-20T06:53:13;35.25;;;20.98;;
28627;SDS011;15815;46.760;19.604;2022-11-20T06:55:41;38.03;;;21.50;;
28627;SDS011;15815;46.760;19.604;2022-11-20T06:58:08;37.13;;;20.75;;
28627;SDS011;15815;46.760;19.604;2022-11-20T07:00:34;42.90;;;21.80;;
28627;SDS011;15815;46.760;19.604;2022-11-20T07:03:02;43.15;;;22.48;;
28627;SDS011;15815;46.760;19.604;2022-11-20T07:05:32;42.65;;;23.15;;
28627;SDS011;15815;46.760;19.604;2022-11-20T07:07:57;38.20;;;21.75;;
28627;SDS011;15815;46.760;19.604;2022-11-20T07:10:23;37.05;;;21.25;;
28627;SDS011;15815;46.760;19.604;2022-11-20T07:12:49;45.05;;;22.75;;
28627;SDS011;15815;46.760;19.604;2022-11-20T07:15:16;39.50;;;23.40;;
28627;SDS011;15815;46.760;19.604;2022-11-20T07:17:42;34.88;;;20.75;;
28627;SDS011;15815;46.760;19.604;2022-11-20T07:20:08;41.65;;;23.15;;
28627;SDS011;15815;46.760;19.604;2022-11-20T07:22:33;36.30;;;21.85;;
28627;SDS011;15815;46.760;19.604;2022-11-20T07:24:59;37.05;;;22.50;;
28627;SDS011;15815;46.760;19.604;2022-11-20T07:27:24;39.10;;;23.75;;
28627;SDS011;15815;46.760;19.604;2022-11-20T07:29:49;39.58;;;21.58;;
28627;SDS011;15815;46.760;19.604;2022-11-20T07:32:15;40.95;;;23.50;;
28627;SDS011;15815;46.760;19.604;2022-11-20T07:34:40;40.80;;;23.52;;
28627;SDS011;15815;46.760;19.604;2022-11-20T07:37:05;48.22;;;28.05;;
28627;SDS011;15815;46.760;19.604;2022-11-20T07:39:31;53.03;;;31.85;;
28627;SDS011;15815;46.760;19.604;2022-11-20T07:41:56;75.85;;;46.50;;
28627;SDS011;15815;46.760;19.604;2022-11-20T07:44:21;72.05;;;44.83;;
28627;SDS011;15815;46.760;19.604;2022-11-20T07:46:50;65.28;;;39.55;;
28627;SDS011;15815;46.760;19.604;2022-11-20T07:49:15;43.85;;;27.00;;
28627;SDS011;15815;46.760;19.604;2022-11-20T07:51:40;40.80;;;21.48;;
28627;SDS011;15815;46.760;19.604;2022-11-20T07:54:06;37.17;;;21.35;;
28627;SDS011;15815;46.760;19.604;2022-11-20T07:56:31;36.85;;;21.70;;
28627;SDS011;15815;46.760;19.604;2022-11-20T07:58:56;37.28;;;21.00;;
28627;SDS011;15815;46.760;19.604;2022-11-20T08:01:22;34.33;;;20.10;;
28627;SDS011;15815;46.760;19.604;2022-11-20T08:03:47;38.45;;;23.55;;
28627;SDS011;15815;46.760;19.604;2022-11-20T08:06:12;34.58;;;21.38;;
28627;SDS011;15815;46.760;19.604;2022-11-20T08:08:39;35.70;;;21.55;;
28627;SDS011;15815;46.760;19.604;2022-11-20T08:11:05;40.33;;;26.52;;
28627;SDS011;15815;46.760;19.604;2022-11-20T08:13:49;39.35;;;24.52;;
28627;SDS011;15815;46.760;19.604;2022-11-20T08:16:33;42.38;;;23.90;;
28627;SDS011;15815;46.760;19.604;2022-11-20T08:18:58;40.60;;;23.92;;
28627;SDS011;15815;46.760;19.604;2022-11-20T08:21:24;37.53;;;22.13;;
28627;SDS011;15815;46.760;19.604;2022-11-20T08:23:49;34.85;;;21.80;;
28627;SDS011;15815;46.760;19.604;2022-11-20T08:26:14;46.30;;;27.60;;
28627;SDS011;15815;46.760;19.604;2022-11-20T08:28:40;60.17;;;34.80;;
28627;SDS011;15815;46.760;19.604;2022-11-20T08:31:05;51.85;;;31.63;;
28627;SDS011;15815;46.760;19.604;2022-11-20T08:33:30;40.33;;;25.15;;
28627;SDS011;15815;46.760;19.604;2022-11-20T08:36:03;42.53;;;26.33;;
28627;SDS011;15815;46.760;19.604;2022-11-20T08:38:30;37.55;;;23.08;;
28627;SDS011;15815;46.760;19.604;2022-11-20T08:40:58;35.40;;;21.08;;
28627;SDS011;15815;46.760;19.604;2022-11-20T08:43:44;38.53;;;22.17;;
28627;SDS011;15815;46.760;19.604;2022-11-20T08:46:09;36.20;;;21.65;;
28627;SDS011;15815;46.760;19.604;2022-11-20T08:48:35;37.03;;;22.27;;
28627;SDS011;15815;46.760;19.604;2022-11-20T08:51:03;39.70;;;23.15;;
28627;SDS011;15815;46.760;19.604;2022-11-20T08:53:29;35.17;;;21.20;;
28627;SDS011;15815;46.760;19.604;2022-11-20T08:55:54;38.10;;;22.30;;
28627;SDS011;15815;46.760;19.604;2022-11-20T08:58:21;34.42;;;21.30;;
28627;SDS011;15815;46.760;19.604;2022-11-20T09:03:21;42.65;;;24.48;;
28627;SDS011;15815;46.760;19.604;2022-11-20T09:05:46;48.80;;;24.60;;
28627;SDS011;15815;46.760;19.604;2022-11-20T09:08:11;39.08;;;21.95;;
28627;SDS011;15815;46.760;19.604;2022-11-20T09:10:37;34.92;;;22.27;;
28627;SDS011;15815;46.760;19.604;2022-11-20T09:13:04;41.78;;;25.33;;
28627;SDS011;15815;46.760;19.604;2022-11-20T09:15:30;46.60;;;25.35;;
28627;SDS011;15815;46.760;19.604;2022-11-20T09:18:00;34.78;;;21.55;;
28627;SDS011;15815;46.760;19.604;2022-11-20T09:20:28;36.13;;;21.17;;
28627;SDS011;15815;46.760;19.604;2022-11-20T09:22:55;37.60;;;22.17;;
28627;SDS011;15815;46.760;19.604;2022-11-20T09:25:21;35.17;;;21.23;;
28627;SDS011;15815;46.760;19.604;2022-11-20T09:27:46;35.97;;;21.52;;
28627;SDS011;15815;46.760;19.604;2022-11-20T09:30:12;45.33;;;24.67;;
28627;SDS011;15815;46.760;19.604;2022-11-20T09:32:39;41.75;;;27.20;;
28627;SDS011;15815;46.760;19.604;2022-11-20T09:35:04;36.90;;;22.55;;
28627;SDS011;15815;46.760;19.604;2022-11-20T09:37:30;33.47;;;22.73;;
28627;SDS011;15815;46.760;19.604;2022-11-20T09:39:58;36.60;;;21.52;;
28627;SDS011;15815;46.760;19.604;2022-11-20T09:45:39;39.67;;;23.23;;
28627;SDS011;15815;46.760;19.604;2022-11-20T09:48:20;36.40;;;22.90;;
28627;SDS011;15815;46.760;19.604;2022-11-20T09:56:03;36.00;;;22.13;;
28627;SDS011;15815;46.760;19.604;2022-11-20T09:58:33;46.85;;;24.85;;
28627;SDS011;15815;46.760;19.604;2022-11-20T10:01:08;39.55;;;25.05;;
28627;SDS011;15815;46.760;19.604;2022-11-20T10:06:07;42.78;;;25.25;;
28627;SDS011;15815;46.760;19.604;2022-11-20T10:12:27;36.13;;;23.30;;
28627;SDS011;15815;46.760;19.604;2022-11-20T10:14:54;40.33;;;22.60;;
28627;SDS011;15815;46.760;19.604;2022-11-20T10:17:34;33.38;;;21.27;;
28627;SDS011;15815;46.760;19.604;2022-11-20T10:20:27;33.15;;;21.05;;
28627;SDS011;15815;46.760;19.604;2022-11-20T10:23:04;37.58;;;22.20;;
28627;SDS011;15815;46.760;19.604;2022-11-20T10:25:44;36.67;;;22.55;;
28627;SDS011;15815;46.760;19.604;2022-11-20T10:31:07;33.53;;;21.60;;
28627;SDS011;15815;46.760;19.604;2022-11-20T10:33:36;32.22;;;20.02;;
28627;SDS011;15815;46.760;19.604;2022-11-20T10:42:17;34.22;;;21.55;;
28627;SDS011;15815;46.760;19.604;2022-11-20T10:45:19;34.70;;;20.77;;
28627;SDS011;15815;46.760;19.604;2022-11-20T10:48:07;40.80;;;24.60;;
28627;SDS011;15815;46.760;19.604;2022-11-20T10:50:39;35.90;;;22.25;;
28627;SDS011;15815;46.760;19.604;2022-11-20T10:56:17;35.85;;;22.13;;
28627;SDS011;15815;46.760;19.604;2022-11-20T11:01:47;30.42;;;20.27;;
28627;SDS011;15815;46.760;19.604;2022-11-20T11:04:31;32.85;;;20.15;;
28627;SDS011;15815;46.760;19.604;2022-11-20T11:07:04;41.38;;;25.27;;
28627;SDS011;15815;46.760;19.604;2022-11-20T11:09:48;42.47;;;25.95;;
28627;SDS011;15815;46.760;19.604;2022-11-20T11:12:15;35.50;;;21.23;;
28627;SDS011;15815;46.760;19.604;2022-11-20T11:14:43;31.65;;;20.83;;
28627;SDS011;15815;46.760;19.604;2022-11-20T11:17:45;33.50;;;21.70;;
28627;SDS011;15815;46.760;19.604;2022-11-20T11:22:45;30.17;;;19.33;;
28627;SDS011;15815;46.760;19.604;2022-11-20T11:25:25;29.55;;;19.20;;
28627;SDS011;15815;46.760;19.604;2022-11-20T11:27:51;33.80;;;21.83;;
28627;SDS011;15815;46.760;19.604;2022-11-20T11:30:18;34.72;;;21.98;;
28627;SDS011;15815;46.760;19.604;2022-11-20T11:32:45;33.45;;;20.48;;
28627;SDS011;15815;46.760;19.604;2022-11-20T11:35:20;31.73;;;20.45;;
28627;SDS011;15815;46.760;19.604;2022-11-20T11:37:49;30.90;;;20.83;;
28627;SDS011;15815;46.760;19.604;2022-11-20T11:40:16;31.25;;;20.63;;
28627;SDS011;15815;46.760;19.604;2022-11-20T11:42:46;30.35;;;20.85;;
28627;SDS011;15815;46.760;19.604;2022-11-20T11:45:25;34.28;;;21.70;;
28627;SDS011;15815;46.760;19.604;2022-11-20T11:47:51;31.20;;;22.23;;
28627;SDS011;15815;46.760;19.604;2022-11-20T11:50:23;29.60;;;20.10;;
28627;SDS011;15815;46.760;19.604;2022-11-20T11:55:33;32.28;;;21.10;;
28627;SDS011;15815;46.760;19.604;2022-11-20T11:58:14;69.43;;;51.38;;
28627;SDS011;15815;46.760;19.604;2022-11-20T12:07:10;30.90;;;19.77;;
28627;SDS011;15815;46.760;19.604;2022-11-20T12:09:48;28.42;;;19.52;;
28627;SDS011;15815;46.760;19.604;2022-11-20T12:12:30;28.67;;;19.08;;
28627;SDS011;15815;46.760;19.604;2022-11-20T12:15:08;26.25;;;17.48;;
28627;SDS011;15815;46.760;19.604;2022-11-20T12:17:36;28.37;;;19.10;;
28627;SDS011;15815;46.760;19.604;2022-11-20T12:20:02;30.98;;;19.40;;
28627;SDS011;15815;46.760;19.604;2022-11-20T12:25:19;26.13;;;18.35;;
28627;SDS011;15815;46.760;19.604;2022-11-20T12:30:28;25.75;;;17.05;;
28627;SDS011;15815;46.760;19.604;2022-11-20T12:33:04;22.70;;;16.60;;
28627;SDS011;15815;46.760;19.604;2022-11-20T12:41:15;30.92;;;20.73;;
28627;SDS011;15815;46.760;19.604;2022-11-20T13:01:47;30.20;;;18.67;;
28627;SDS011;15815;46.760;19.604;2022-11-20T13:07:11;25.15;;;16.33;;
28627;SDS011;15815;46.760;19.604;2022-11-20T13:09:43;26.67;;;16.75;;
28627;SDS011;15815;46.760;19.604;2022-11-20T13:15:14;30.65;;;19.33;;
28627;SDS011;15815;46.760;19.604;2022-11-20T13:18:00;29.90;;;18.75;;
28627;SDS011;15815;46.760;19.604;2022-11-20T13:20:27;25.73;;;17.05;;
28627;SDS011;15815;46.760;19.604;2022-11-20T13:22:55;31.55;;;16.63;;
28627;SDS011;15815;46.760;19.604;2022-11-20T13:25:23;25.30;;;16.20;;
28627;SDS011;15815;46.760;19.604;2022-11-20T13:27:53;24.35;;;14.82;;
28627;SDS011;15815;46.760;19.604;2022-11-20T13:30:20;26.02;;;15.00;;
28627;SDS011;15815;46.760;19.604;2022-11-20T13:40:26;20.15;;;14.38;;
28627;SDS011;15815;46.760;19.604;2022-11-20T13:43:00;22.60;;;14.13;;
28627;SDS011;15815;46.760;19.604;2022-11-20T13:45:29;23.00;;;15.18;;
28627;SDS011;15815;46.760;19.604;2022-11-20T13:47:56;25.42;;;15.95;;
28627;SDS011;15815;46.760;19.604;2022-11-20T13:50:51;30.38;;;17.70;;
28627;SDS011;15815;46.760;19.604;2022-11-20T13:54:22;33.88;;;19.70;;
28627;SDS011;15815;46.760;19.604;2022-11-20T14:02:10;32.83;;;20.08;;
28627;SDS011;15815;46.760;19.604;2022-11-20T14:04:48;40.67;;;24.40;;
28627;SDS011;15815;46.760;19.604;2022-11-20T14:07:16;37.83;;;21.80;;
28627;SDS011;15815;46.760;19.604;2022-11-20T14:09:52;42.80;;;21.00;;
28627;SDS011;15815;46.760;19.604;2022-11-20T14:12:23;39.67;;;22.92;;
28627;SDS011;15815;46.760;19.604;2022-11-20T14:17:23;31.17;;;19.08;;
28627;SDS011;15815;46.760;19.604;2022-11-20T14:19:56;32.65;;;20.02;;
28627;SDS011;15815;46.760;19.604;2022-11-20T14:22:27;42.65;;;25.10;;
28627;SDS011;15815;46.760;19.604;2022-11-20T14:25:06;55.88;;;31.98;;
28627;SDS011;15815;46.760;19.604;2022-11-20T14:27:50;64.72;;;42.40;;
28627;SDS011;15815;46.760;19.604;2022-11-20T14:30:19;59.17;;;37.42;;
28627;SDS011;15815;46.760;19.604;2022-11-20T14:32:47;52.28;;;33.92;;
28627;SDS011;15815;46.760;19.604;2022-11-20T14:35:25;43.88;;;30.08;;
28627;SDS011;15815;46.760;19.604;2022-11-20T14:45:56;38.20;;;24.30;;
28627;SDS011;15815;46.760;19.604;2022-11-20T14:48:31;50.03;;;27.50;;
28627;SDS011;15815;46.760;19.604;2022-11-20T14:51:00;60.42;;;34.35;;
28627;SDS011;15815;46.760;19.604;2022-11-20T14:53:26;46.17;;;27.13;;
28627;SDS011;15815;46.760;19.604;2022-11-20T14:55:55;44.83;;;24.88;;
28627;SDS011;15815;46.760;19.604;2022-11-20T14:58:23;40.53;;;25.23;;
28627;SDS011;15815;46.760;19.604;2022-11-20T15:00:54;50.08;;;28.52;;
28627;SDS011;15815;46.760;19.604;2022-11-20T15:03:35;52.25;;;31.17;;
28627;SDS011;15815;46.760;19.604;2022-11-20T15:06:02;53.75;;;29.63;;
28627;SDS011;15815;46.760;19.604;2022-11-20T15:08:29;49.55;;;28.15;;
28627;SDS011;15815;46.760;19.604;2022-11-20T15:10:57;42.35;;;25.20;;
28627;SDS011;15815;46.760;19.604;2022-11-20T15:13:29;39.25;;;23.88;;
28627;SDS011;15815;46.760;19.604;2022-11-20T15:15:58;38.67;;;24.83;;
28627;SDS011;15815;46.760;19.604;2022-11-20T15:18:29;36.90;;;23.88;;
28627;SDS011;15815;46.760;19.604;2022-11-20T15:20:58;41.78;;;24.35;;
28627;SDS011;15815;46.760;19.604;2022-11-20T15:23:27;39.42;;;24.85;;
28627;SDS011;15815;46.760;19.604;2022-11-20T15:25:54;61.28;;;47.38;;
28627;SDS011;15815;46.760;19.604;2022-11-20T15:28:23;42.70;;;25.40;;
28627;SDS011;15815;46.760;19.604;2022-11-20T15:30:50;36.25;;;23.83;;
28627;SDS011;15815;46.760;19.604;2022-11-20T15:33:16;43.65;;;25.98;;
28627;SDS011;15815;46.760;19.604;2022-11-20T15:35:42;38.88;;;24.25;;
28627;SDS011;15815;46.760;19.604;2022-11-20T15:38:08;51.10;;;31.40;;
28627;SDS011;15815;46.760;19.604;2022-11-20T15:40:35;61.50;;;37.28;;
28627;SDS011;15815;46.760;19.604;2022-11-20T15:43:00;63.22;;;39.63;;
28627;SDS011;15815;46.760;19.604;2022-11-20T15:45:36;59.05;;;38.38;;
28627;SDS011;15815;46.760;19.604;2022-11-20T15:48:23;51.58;;;32.63;;
28627;SDS011;15815;46.760;19.604;2022-11-20T15:50:53;47.40;;;30.90;;
28627;SDS011;15815;46.760;19.604;2022-11-20T15:53:20;51.67;;;29.83;;
28627;SDS011;15815;46.760;19.604;2022-11-20T15:55:45;53.72;;;30.30;;
28627;SDS011;15815;46.760;19.604;2022-11-20T15:58:10;53.03;;;31.77;;
28627;SDS011;15815;46.760;19.604;2022-11-20T16:00:36;57.47;;;34.88;;
28627;SDS011;15815;46.760;19.604;2022-11-20T16:03:01;77.13;;;41.67;;
28627;SDS011;15815;46.760;19.604;2022-11-20T16:05:29;87.80;;;47.97;;
28627;SDS011;15815;46.760;19.604;2022-11-20T16:07:55;116.30;;;57.78;;
28627;SDS011;15815;46.760;19.604;2022-11-20T16:10:21;100.82;;;54.10;;
28627;SDS011;15815;46.760;19.604;2022-11-20T16:12:46;81.60;;;46.85;;
28627;SDS011;15815;46.760;19.604;2022-11-20T16:15:30;84.60;;;47.22;;